sensor_id;sensor_type;location;lat;lon;timestamp;pressure;altitude;pressure_sealevel;temperature;humidity
37486;BME280;23341;50.296;18.960;2023-06-14T00:04:51;51179.81;;;-144.43;100.00
37486;BME280;23341;50.296;18.960;2023-06-14T00:09:55;51159.81;;;-144.43;100.00
37486;BME280;23341;50.296;18.960;2023-06-14T00:15:00;51177.81;;;-144.43;100.00
37486;BME280;23341;50.296;18.960;2023-06-14T00:27:03;51177.81;;;-144.43;100.00
37486;BME280;23341;50.296;18.960;2023-06-14T00:32:08;51149.81;;;-144.43;100.00
37486;BME280;23341;50.296;18.960;2023-06-14T00:42:59;51181.81;;;-144.43;100.00
37486;BME280;23341;50.296;18.960;2023-06-14T00:48:04;51191.78;;;-144.43;100.00
37486;BME280;23341;50.296;18.960;2023-06-14T00:53:36;51219.78;;;-144.43;100.00
37486;BME280;23341;50.296;18.960;2023-06-14T00:59:42;51235.78;;;-144.43;100.00
37486;BME280;23341;50.296;18.960;2023-06-14T01:10:36;51253.78;;;-144.43;100.00
37486;BME280;23341;50.296;18.960;2023-06-14T01:21:30;51225.78;;;-144.43;100.00
37486;BME280;23341;50.296;18.960;2023-06-14T01:26:46;51301.78;;;-144.43;100.00
37486;BME280;23341;50.296;18.960;2023-06-14T01:38:42;51363.75;;;-144.43;100.00
37486;BME280;23341;50.296;18.960;2023-06-14T01:56:32;51391.75;;;-144.43;100.00
37486;BME280;23341;50.296;18.960;2023-06-14T02:08:32;51453.75;;;-144.43;100.00
37486;BME280;23341;50.296;18.960;2023-06-14T02:19:39;51477.75;;;-144.43;100.00
37486;BME280;23341;50.296;18.960;2023-06-14T02:30:38;51503.75;;;-144.43;100.00
37486;BME280;23341;50.296;18.960;2023-06-14T02:35:45;51501.75;;;-144.43;100.00
37486;BME280;23341;50.296;18.960;2023-06-14T02:47:10;51475.75;;;-144.43;100.00
37486;BME280;23341;50.296;18.960;2023-06-14T02:59:15;51539.75;;;-144.43;100.00
37486;BME280;23341;50.296;18.960;2023-06-14T03:16:36;51521.75;;;-144.43;100.00
37486;BME280;23341;50.296;18.960;2023-06-14T03:21:44;51525.75;;;-144.43;100.00
37486;BME280;23341;50.296;18.960;2023-06-14T03:26:50;51511.75;;;-144.43;100.00
37486;BME280;23341;50.296;18.960;2023-06-14T03:33:08;51559.72;;;-144.43;100.00
37486;BME280;23341;50.296;18.960;2023-06-14T03:45:22;51545.75;;;-144.43;100.00
37486;BME280;23341;50.296;18.960;2023-06-14T03:56:42;51603.72;;;-144.43;100.00
37486;BME280;23341;50.296;18.960;2023-06-14T04:02:38;51597.72;;;-144.43;100.00
37486;BME280;23341;50.296;18.960;2023-06-14T04:07:45;51585.72;;;-144.43;100.00
37486;BME280;23341;50.296;18.960;2023-06-14T04:19:49;51651.72;;;-144.43;100.00
37486;BME280;23341;50.296;18.960;2023-06-14T04:24:55;51673.72;;;-144.43;100.00
37486;BME280;23341;50.296;18.960;2023-06-14T04:37:16;51647.72;;;-144.43;100.00
37486;BME280;23341;50.296;18.960;2023-06-14T04:42:21;51657.72;;;-144.43;100.00
37486;BME280;23341;50.296;18.960;2023-06-14T04:47:28;51665.72;;;-144.43;100.00
37486;BME280;23341;50.296;18.960;2023-06-14T04:58:19;51741.72;;;-144.43;100.00
37486;BME280;23341;50.296;18.960;2023-06-14T05:03:24;51625.72;;;-144.43;100.00
37486;BME280;23341;50.296;18.960;2023-06-14T05:08:30;51629.72;;;-144.43;100.00
37486;BME280;23341;50.296;18.960;2023-06-14T05:25:35;51629.72;;;-144.43;100.00
37486;BME280;23341;50.296;18.960;2023-06-14T05:30:39;51699.72;;;-144.43;100.00
37486;BME280;23341;50.296;18.960;2023-06-14T05:35:45;51699.72;;;-144.43;100.00
37486;BME280;23341;50.296;18.960;2023-06-14T05:40:51;51733.72;;;-144.43;100.00
37486;BME280;23341;50.296;18.960;2023-06-14T05:45:56;51805.72;;;-144.43;100.00
37486;BME280;23341;50.296;18.960;2023-06-14T05:51:00;51865.72;;;-144.43;100.00
37486;BME280;23341;50.296;18.960;2023-06-14T06:02:38;51743.72;;;-144.43;99.63
37486;BME280;23341;50.296;18.960;2023-06-14T06:09:07;51729.72;;;-144.43;100.00
37486;BME280;23341;50.296;18.960;2023-06-14T06:14:11;51725.72;;;-144.43;98.37
37486;BME280;23341;50.296;18.960;2023-06-14T06:26:05;51793.72;;;-144.43;96.29
37486;BME280;23341;50.296;18.960;2023-06-14T06:31:10;51691.72;;;-144.43;96.92
37486;BME280;23341;50.296;18.960;2023-06-14T06:36:15;51675.72;;;-144.43;98.45
37486;BME280;23341;50.296;18.960;2023-06-14T06:41:20;51619.72;;;-144.43;100.00
37486;BME280;23341;50.296;18.960;2023-06-14T06:46:25;51651.72;;;-144.43;100.00
37486;BME280;23341;50.296;18.960;2023-06-14T06:51:30;51661.72;;;-144.43;100.00
37486;BME280;23341;50.296;18.960;2023-06-14T06:56:36;51617.72;;;-144.43;100.00
37486;BME280;23341;50.296;18.960;2023-06-14T07:01:40;51597.72;;;-144.43;100.00
37486;BME280;23341;50.296;18.960;2023-06-14T07:06:46;51727.72;;;-144.43;100.00
37486;BME280;23341;50.296;18.960;2023-06-14T07:11:52;51777.72;;;-144.43;98.62
37486;BME280;23341;50.296;18.960;2023-06-14T07:16:56;51749.72;;;-144.43;98.93
37486;BME280;23341;50.296;18.960;2023-06-14T07:22:01;51715.72;;;-144.43;99.18
37486;BME280;23341;50.296;18.960;2023-06-14T07:27:06;51673.72;;;-144.43;99.63
37486;BME280;23341;50.296;18.960;2023-06-14T07:32:11;51583.72;;;-144.43;100.00
37486;BME280;23341;50.296;18.960;2023-06-14T07:37:15;51613.72;;;-144.43;100.00
37486;BME280;23341;50.296;18.960;2023-06-14T07:42:21;51635.72;;;-144.43;99.83
37486;BME280;23341;50.296;18.960;2023-06-14T07:47:26;51653.72;;;-144.43;100.00
37486;BME280;23341;50.296;18.960;2023-06-14T07:52:30;51709.72;;;-144.43;99.98
37486;BME280;23341;50.296;18.960;2023-06-14T07:57:36;51653.72;;;-144.43;99.61
37486;BME280;23341;50.296;18.960;2023-06-14T08:02:41;51641.72;;;-144.43;99.58
37486;BME280;23341;50.296;18.960;2023-06-14T08:07:46;51683.72;;;-144.43;100.00
37486;BME280;23341;50.296;18.960;2023-06-14T08:12:51;51597.72;;;-144.43;100.00
37486;BME280;23341;50.296;18.960;2023-06-14T08:17:55;51581.72;;;-144.43;100.00
37486;BME280;23341;50.296;18.960;2023-06-14T08:23:03;51555.72;;;-144.43;100.00
37486;BME280;23341;50.296;18.960;2023-06-14T08:28:09;51609.72;;;-144.43;100.00
37486;BME280;23341;50.296;18.960;2023-06-14T08:33:13;51687.72;;;-144.43;100.00
37486;BME280;23341;50.296;18.960;2023-06-14T08:38:19;51765.72;;;-144.43;97.87
37486;BME280;23341;50.296;18.960;2023-06-14T08:43:25;51727.72;;;-144.43;98.20
37486;BME280;23341;50.296;18.960;2023-06-14T08:48:30;51725.72;;;-144.43;99.61
37486;BME280;23341;50.296;18.960;2023-06-14T08:53:37;51699.72;;;-144.43;100.00
37486;BME280;23341;50.296;18.960;2023-06-14T08:58:47;51701.72;;;-144.43;100.00
37486;BME280;23341;50.296;18.960;2023-06-14T09:03:51;51653.72;;;-144.43;100.00
37486;BME280;23341;50.296;18.960;2023-06-14T09:08:57;51731.72;;;-144.43;100.00
37486;BME280;23341;50.296;18.960;2023-06-14T09:14:05;51799.72;;;-144.43;100.00
37486;BME280;23341;50.296;18.960;2023-06-14T09:19:14;51849.72;;;-144.43;100.00
37486;BME280;23341;50.296;18.960;2023-06-14T09:24:18;51949.69;;;-144.43;100.00
37486;BME280;23341;50.296;18.960;2023-06-14T09:29:24;51961.69;;;-144.43;100.00
37486;BME280;23341;50.296;18.960;2023-06-14T09:34:29;52059.69;;;-144.43;100.00
37486;BME280;23341;50.296;18.960;2023-06-14T09:39:33;51985.69;;;-144.43;100.00
37486;BME280;23341;50.296;18.960;2023-06-14T09:44:39;51929.72;;;-144.43;100.00
37486;BME280;23341;50.296;18.960;2023-06-14T09:49:43;51921.72;;;-144.43;100.00
37486;BME280;23341;50.296;18.960;2023-06-14T09:54:48;51885.72;;;-144.43;100.00
37486;BME280;23341;50.296;18.960;2023-06-14T09:59:57;51847.72;;;-144.43;100.00
37486;BME280;23341;50.296;18.960;2023-06-14T10:05:04;51869.72;;;-144.43;100.00
37486;BME280;23341;50.296;18.960;2023-06-14T10:10:10;51829.72;;;-144.43;100.00
37486;BME280;23341;50.296;18.960;2023-06-14T10:15:20;51897.72;;;-144.43;100.00
37486;BME280;23341;50.296;18.960;2023-06-14T10:20:30;51893.72;;;-144.43;100.00
37486;BME280;23341;50.296;18.960;2023-06-14T10:25:36;51995.69;;;-144.43;100.00
37486;BME280;23341;50.296;18.960;2023-06-14T10:31:01;52047.69;;;-144.43;100.00
37486;BME280;23341;50.296;18.960;2023-06-14T10:36:26;52113.69;;;-144.43;100.00
37486;BME280;23341;50.296;18.960;2023-06-14T10:41:36;52215.72;;;-144.43;100.00
37486;BME280;23341;50.296;18.960;2023-06-14T10:46:48;52269.72;;;-144.43;96.21
37486;BME280;23341;50.296;18.960;2023-06-14T10:51:53;52351.72;;;-144.43;94.91
37486;BME280;23341;50.296;18.960;2023-06-14T10:57:01;52427.72;;;-144.43;91.09
37486;BME280;23341;50.296;18.960;2023-06-14T11:02:27;52601.75;;;-144.43;89.39
37486;BME280;23341;50.296;18.960;2023-06-14T11:07:48;52677.75;;;-144.43;85.97
37486;BME280;23341;50.296;18.960;2023-06-14T11:12:59;52723.75;;;-144.43;82.72
37486;BME280;23341;50.296;18.960;2023-06-14T11:18:07;52691.75;;;-144.43;78.38
37486;BME280;23341;50.296;18.960;2023-06-14T11:23:12;52549.72;;;-144.43;79.31
37486;BME280;23341;50.296;18.960;2023-06-14T11:28:16;52715.75;;;-144.43;81.43
37486;BME280;23341;50.296;18.960;2023-06-14T11:33:23;52259.72;;;-144.43;87.05
37486;BME280;23341;50.296;18.960;2023-06-14T11:38:28;51993.69;;;-144.43;89.46
37486;BME280;23341;50.296;18.960;2023-06-14T11:43:32;52075.69;;;-144.43;92.65
37486;BME280;23341;50.296;18.960;2023-06-14T11:48:41;52033.69;;;-144.43;91.25
37486;BME280;23341;50.296;18.960;2023-06-14T11:53:46;52071.69;;;-144.43;91.11
37486;BME280;23341;50.296;18.960;2023-06-14T11:58:51;52095.69;;;-144.43;90.03
37486;BME280;23341;50.296;18.960;2023-06-14T12:04:01;52105.69;;;-144.43;90.91
37486;BME280;23341;50.296;18.960;2023-06-14T12:09:07;52069.69;;;-144.43;89.01
37486;BME280;23341;50.296;18.960;2023-06-14T12:14:16;52265.72;;;-144.43;84.43
37486;BME280;23341;50.296;18.960;2023-06-14T12:19:26;52385.72;;;-144.43;80.57
37486;BME280;23341;50.296;18.960;2023-06-14T12:24:32;52397.72;;;-144.43;80.80
37486;BME280;23341;50.296;18.960;2023-06-14T12:29:36;52381.72;;;-144.43;80.42
37486;BME280;23341;50.296;18.960;2023-06-14T12:34:42;52267.72;;;-144.43;79.63
37486;BME280;23341;50.296;18.960;2023-06-14T12:39:46;52293.72;;;-144.43;78.73
37486;BME280;23341;50.296;18.960;2023-06-14T12:44:50;52343.72;;;-144.43;69.13
37486;BME280;23341;50.296;18.960;2023-06-14T12:49:56;52717.75;;;-144.43;65.50
37486;BME280;23341;50.296;18.960;2023-06-14T12:55:01;53203.88;;;-144.43;59.91
37486;BME280;23341;50.296;18.960;2023-06-14T13:00:06;53728.06;;;-144.43;51.92
37486;BME280;23341;50.296;18.960;2023-06-14T13:05:14;53391.94;;;-144.43;49.71
37486;BME280;23341;50.296;18.960;2023-06-14T13:10:21;53009.81;;;-144.43;48.23
37486;BME280;23341;50.296;18.960;2023-06-14T13:15:26;52805.78;;;-144.43;48.32
37486;BME280;23341;50.296;18.960;2023-06-14T13:20:32;52701.75;;;-144.43;52.78
37486;BME280;23341;50.296;18.960;2023-06-14T13:25:37;52477.72;;;-144.43;55.21
37486;BME280;23341;50.296;18.960;2023-06-14T13:30:41;52345.72;;;-144.43;55.25
37486;BME280;23341;50.296;18.960;2023-06-14T13:35:47;52635.75;;;-144.43;55.43
37486;BME280;23341;50.296;18.960;2023-06-14T13:40:53;52685.75;;;-144.43;55.23
37486;BME280;23341;50.296;18.960;2023-06-14T13:45:58;52539.72;;;-144.43;56.61
37486;BME280;23341;50.296;18.960;2023-06-14T13:51:04;52581.75;;;-144.43;56.79
37486;BME280;23341;50.296;18.960;2023-06-14T13:56:09;52457.72;;;-144.43;57.48
37486;BME280;23341;50.296;18.960;2023-06-14T14:01:13;52265.72;;;-144.43;59.83
37486;BME280;23341;50.296;18.960;2023-06-14T14:06:18;52111.69;;;-144.43;62.96
37486;BME280;23341;50.296;18.960;2023-06-14T14:11:23;52355.72;;;-144.43;59.31
37486;BME280;23341;50.296;18.960;2023-06-14T14:16:27;52033.69;;;-144.43;60.18
37486;BME280;23341;50.296;18.960;2023-06-14T14:21:35;51955.69;;;-144.43;62.96
37486;BME280;23341;50.296;18.960;2023-06-14T14:26:39;52277.72;;;-144.43;57.00
37486;BME280;23341;50.296;18.960;2023-06-14T14:31:45;52329.72;;;-144.43;57.42
37486;BME280;23341;50.296;18.960;2023-06-14T14:36:56;52277.72;;;-144.43;57.87
37486;BME280;23341;50.296;18.960;2023-06-14T14:42:01;52469.72;;;-144.43;55.05
37486;BME280;23341;50.296;18.960;2023-06-14T14:47:05;52149.69;;;-144.43;53.78
37486;BME280;23341;50.296;18.960;2023-06-14T14:52:12;52933.81;;;-144.43;49.68
37486;BME280;23341;50.296;18.960;2023-06-14T14:57:26;52525.72;;;-144.43;53.21
37486;BME280;23341;50.296;18.960;2023-06-14T15:02:31;52061.69;;;-144.43;59.03
37486;BME280;23341;50.296;18.960;2023-06-14T15:07:37;51691.72;;;-144.43;62.37
37486;BME280;23341;50.296;18.960;2023-06-14T15:12:42;51507.75;;;-144.43;64.95
37486;BME280;23341;50.296;18.960;2023-06-14T15:17:46;51573.72;;;-144.43;64.53
37486;BME280;23341;50.296;18.960;2023-06-14T15:22:53;51497.75;;;-144.43;63.70
37486;BME280;23341;50.296;18.960;2023-06-14T15:28:02;51409.75;;;-144.43;65.84
37486;BME280;23341;50.296;18.960;2023-06-14T15:33:09;51359.75;;;-144.43;68.39
37486;BME280;23341;50.296;18.960;2023-06-14T15:38:15;51507.75;;;-144.43;67.86
37486;BME280;23341;50.296;18.960;2023-06-14T15:43:19;51779.72;;;-144.43;62.06
37486;BME280;23341;50.296;18.960;2023-06-14T15:48:26;52133.69;;;-144.43;59.54
37486;BME280;23341;50.296;18.960;2023-06-14T15:53:32;52253.72;;;-144.43;57.72
37486;BME280;23341;50.296;18.960;2023-06-14T15:58:37;51961.69;;;-144.43;57.44
37486;BME280;23341;50.296;18.960;2023-06-14T16:03:41;51737.72;;;-144.43;60.82
37486;BME280;23341;50.296;18.960;2023-06-14T16:08:47;51957.69;;;-144.43;59.54
37486;BME280;23341;50.296;18.960;2023-06-14T16:13:52;52133.69;;;-144.43;56.29
37486;BME280;23341;50.296;18.960;2023-06-14T16:18:58;51989.69;;;-144.43;58.76
37486;BME280;23341;50.296;18.960;2023-06-14T16:24:04;52269.72;;;-144.43;57.24
37486;BME280;23341;50.296;18.960;2023-06-14T16:29:11;52295.72;;;-144.43;56.77
37486;BME280;23341;50.296;18.960;2023-06-14T16:34:16;51751.72;;;-144.43;61.53
37486;BME280;23341;50.296;18.960;2023-06-14T16:39:22;51517.75;;;-144.43;67.27
37486;BME280;23341;50.296;18.960;2023-06-14T16:44:27;51385.75;;;-144.43;68.27
37486;BME280;23341;50.296;18.960;2023-06-14T16:49:31;51421.75;;;-144.43;70.51
37486;BME280;23341;50.296;18.960;2023-06-14T16:54:37;51433.75;;;-144.43;72.69
37486;BME280;23341;50.296;18.960;2023-06-14T16:59:41;51381.75;;;-144.43;73.14
37486;BME280;23341;50.296;18.960;2023-06-14T17:04:46;51411.75;;;-144.43;73.54
37486;BME280;23341;50.296;18.960;2023-06-14T17:09:52;51411.75;;;-144.43;76.88
37486;BME280;23341;50.296;18.960;2023-06-14T17:14:56;51271.78;;;-144.43;78.63
37486;BME280;23341;50.296;18.960;2023-06-14T17:20:01;51287.78;;;-144.43;79.07
37486;BME280;23341;50.296;18.960;2023-06-14T17:25:08;51315.78;;;-144.43;79.12
37486;BME280;23341;50.296;18.960;2023-06-14T17:30:13;51309.78;;;-144.43;78.57
37486;BME280;23341;50.296;18.960;2023-06-14T17:35:18;51313.78;;;-144.43;78.75
37486;BME280;23341;50.296;18.960;2023-06-14T17:40:24;51237.78;;;-144.43;79.04
37486;BME280;23341;50.296;18.960;2023-06-14T17:45:43;51241.78;;;-144.43;80.32
37486;BME280;23341;50.296;18.960;2023-06-14T17:50:47;51151.81;;;-144.43;82.13
37486;BME280;23341;50.296;18.960;2023-06-14T17:55:54;51135.81;;;-144.43;82.94
37486;BME280;23341;50.296;18.960;2023-06-14T18:00:58;51165.81;;;-144.43;83.51
37486;BME280;23341;50.296;18.960;2023-06-14T18:06:03;51135.81;;;-144.43;84.24
37486;BME280;23341;50.296;18.960;2023-06-14T18:11:09;51109.81;;;-144.43;84.36
37486;BME280;23341;50.296;18.960;2023-06-14T18:16:14;51131.81;;;-144.43;84.83
37486;BME280;23341;50.296;18.960;2023-06-14T18:21:22;51131.81;;;-144.43;85.39
37486;BME280;23341;50.296;18.960;2023-06-14T18:26:28;51123.81;;;-144.43;87.63
37486;BME280;23341;50.296;18.960;2023-06-14T18:31:32;51133.81;;;-144.43;89.99
37486;BME280;23341;50.296;18.960;2023-06-14T18:36:37;51141.81;;;-144.43;92.34
37486;BME280;23341;50.296;18.960;2023-06-14T18:41:44;51153.81;;;-144.43;94.70
37486;BME280;23341;50.296;18.960;2023-06-14T18:46:49;51139.81;;;-144.43;96.72
37486;BME280;23341;50.296;18.960;2023-06-14T18:51:54;51149.81;;;-144.43;98.30
37486;BME280;23341;50.296;18.960;2023-06-14T18:56:59;51135.81;;;-144.43;99.77
37486;BME280;23341;50.296;18.960;2023-06-14T19:02:04;51181.81;;;-144.43;100.00
37486;BME280;23341;50.296;18.960;2023-06-14T19:07:09;51199.78;;;-144.43;100.00
37486;BME280;23341;50.296;18.960;2023-06-14T19:12:15;51269.78;;;-144.43;100.00
37486;BME280;23341;50.296;18.960;2023-06-14T19:17:19;51333.78;;;-144.43;100.00
37486;BME280;23341;50.296;18.960;2023-06-14T19:22:23;51341.78;;;-144.43;100.00
37486;BME280;23341;50.296;18.960;2023-06-14T19:27:29;51411.75;;;-144.43;100.00
37486;BME280;23341;50.296;18.960;2023-06-14T19:32:38;51433.75;;;-144.43;100.00
37486;BME280;23341;50.296;18.960;2023-06-14T19:37:42;51473.75;;;-144.43;100.00
37486;BME280;23341;50.296;18.960;2023-06-14T19:42:48;51513.75;;;-144.43;100.00
37486;BME280;23341;50.296;18.960;2023-06-14T19:47:53;51561.72;;;-144.43;100.00
37486;BME280;23341;50.296;18.960;2023-06-14T19:53:08;51633.72;;;-144.43;100.00
37486;BME280;23341;50.296;18.960;2023-06-14T19:58:14;51645.72;;;-144.43;100.00
37486;BME280;23341;50.296;18.960;2023-06-14T20:03:19;51669.72;;;-144.43;100.00
37486;BME280;23341;50.296;18.960;2023-06-14T20:08:23;51695.72;;;-144.43;100.00
37486;BME280;23341;50.296;18.960;2023-06-14T20:13:29;51747.72;;;-144.43;100.00
37486;BME280;23341;50.296;18.960;2023-06-14T20:18:33;51829.72;;;-144.43;100.00
37486;BME280;23341;50.296;18.960;2023-06-14T20:23:37;51843.72;;;-144.43;100.00
37486;BME280;23341;50.296;18.960;2023-06-14T20:28:43;51837.72;;;-144.43;100.00
37486;BME280;23341;50.296;18.960;2023-06-14T20:33:48;51897.72;;;-144.43;100.00
37486;BME280;23341;50.296;18.960;2023-06-14T20:38:52;51881.72;;;-144.43;100.00
37486;BME280;23341;50.296;18.960;2023-06-14T20:43:58;51885.72;;;-144.43;100.00
37486;BME280;23341;50.296;18.960;2023-06-14T20:49:04;51893.72;;;-144.43;100.00
37486;BME280;23341;50.296;18.960;2023-06-14T20:54:10;51971.69;;;-144.43;100.00
37486;BME280;23341;50.296;18.960;2023-06-14T20:59:16;52017.69;;;-144.43;100.00
37486;BME280;23341;50.296;18.960;2023-06-14T21:04:21;52037.69;;;-144.43;100.00
37486;BME280;23341;50.296;18.960;2023-06-14T21:09:25;52073.69;;;-144.43;100.00
37486;BME280;23341;50.296;18.960;2023-06-14T21:14:31;52055.69;;;-144.43;100.00
37486;BME280;23341;50.296;18.960;2023-06-14T21:19:35;52087.69;;;-144.43;100.00
37486;BME280;23341;50.296;18.960;2023-06-14T21:24:40;52043.69;;;-144.43;100.00
37486;BME280;23341;50.296;18.960;2023-06-14T21:29:46;52101.69;;;-144.43;100.00
37486;BME280;23341;50.296;18.960;2023-06-14T21:34:52;52131.69;;;-144.43;100.00
37486;BME280;23341;50.296;18.960;2023-06-14T21:39:57;52197.72;;;-144.43;100.00
37486;BME280;23341;50.296;18.960;2023-06-14T21:45:07;52185.69;;;-144.43;100.00
37486;BME280;23341;50.296;18.960;2023-06-14T21:50:13;52191.72;;;-144.43;100.00
37486;BME280;23341;50.296;18.960;2023-06-14T21:55:18;52181.69;;;-144.43;100.00
37486;BME280;23341;50.296;18.960;2023-06-14T22:00:27;52173.69;;;-144.43;100.00
37486;BME280;23341;50.296;18.960;2023-06-14T22:05:33;52165.69;;;-144.43;100.00
37486;BME280;23341;50.296;18.960;2023-06-14T22:10:37;52147.69;;;-144.43;100.00
37486;BME280;23341;50.296;18.960;2023-06-14T22:15:43;52173.69;;;-144.43;100.00
37486;BME280;23341;50.296;18.960;2023-06-14T22:20:48;52141.69;;;-144.43;100.00
37486;BME280;23341;50.296;18.960;2023-06-14T22:25:53;52153.69;;;-144.43;100.00
37486;BME280;23341;50.296;18.960;2023-06-14T22:30:59;52153.69;;;-144.43;100.00
37486;BME280;23341;50.296;18.960;2023-06-14T22:36:04;52167.69;;;-144.43;100.00
37486;BME280;23341;50.296;18.960;2023-06-14T22:41:08;52161.69;;;-144.43;100.00
37486;BME280;23341;50.296;18.960;2023-06-14T22:46:17;52169.72;;;-144.43;100.00
37486;BME280;23341;50.296;18.960;2023-06-14T22:51:26;52187.72;;;-144.43;100.00
37486;BME280;23341;50.296;18.960;2023-06-14T22:56:30;52177.69;;;-144.43;100.00
37486;BME280;23341;50.296;18.960;2023-06-14T23:01:36;52209.72;;;-144.43;100.00
37486;BME280;23341;50.296;18.960;2023-06-14T23:06:40;52173.69;;;-144.43;100.00
37486;BME280;23341;50.296;18.960;2023-06-14T23:11:45;52159.69;;;-144.43;100.00
37486;BME280;23341;50.296;18.960;2023-06-14T23:16:51;52177.69;;;-144.43;100.00
37486;BME280;23341;50.296;18.960;2023-06-14T23:21:56;52225.72;;;-144.43;100.00
37486;BME280;23341;50.296;18.960;2023-06-14T23:27:01;52185.69;;;-144.43;100.00
37486;BME280;23341;50.296;18.960;2023-06-14T23:32:09;52237.72;;;-144.43;100.00
37486;BME280;23341;50.296;18.960;2023-06-14T23:37:13;52201.69;;;-144.43;100.00
37486;BME280;23341;50.296;18.960;2023-06-14T23:42:18;52189.72;;;-144.43;100.00
37486;BME280;23341;50.296;18.960;2023-06-14T23:47:24;52209.72;;;-144.43;100.00
37486;BME280;23341;50.296;18.960;2023-06-14T23:52:29;52229.72;;;-144.43;100.00
37486;BME280;23341;50.296;18.960;2023-06-14T23:57:34;52285.72;;;-144.43;100.00
